sensor_id;sensor_type;location;lat;lon;timestamp;P1;durP1;ratioP1;P2;durP2;ratioP2
15996;SDS011;8103;51.340;12.326;2023-01-08T00:02:25;9.43;;;5.68;;
15996;SDS011;8103;51.340;12.326;2023-01-08T00:04:53;6.20;;;5.20;;
15996;SDS011;8103;51.340;12.326;2023-01-08T00:07:20;5.57;;;5.07;;
15996;SDS011;8103;51.340;12.326;2023-01-08T00:09:47;6.43;;;5.15;;
15996;SDS011;8103;51.340;12.326;2023-01-08T00:12:15;5.57;;;5.07;;
15996;SDS011;8103;51.340;12.326;2023-01-08T00:14:42;8.05;;;6.45;;
15996;SDS011;8103;51.340;12.326;2023-01-08T00:17:09;7.47;;;5.32;;
15996;SDS011;8103;51.340;12.326;2023-01-08T00:19:36;7.97;;;4.97;;
15996;SDS011;8103;51.340;12.326;2023-01-08T00:22:03;5.40;;;4.90;;
15996;SDS011;8103;51.340;12.326;2023-01-08T00:24:32;8.32;;;5.78;;
15996;SDS011;8103;51.340;12.326;2023-01-08T00:26:59;6.22;;;4.82;;
15996;SDS011;8103;51.340;12.326;2023-01-08T00:29:26;6.05;;;5.32;;
15996;SDS011;8103;51.340;12.326;2023-01-08T00:31:52;6.22;;;5.63;;
15996;SDS011;8103;51.340;12.326;2023-01-08T00:34:19;6.88;;;5.30;;
15996;SDS011;8103;51.340;12.326;2023-01-08T00:36:46;6.22;;;4.97;;
15996;SDS011;8103;51.340;12.326;2023-01-08T00:39:13;6.05;;;5.45;;
15996;SDS011;8103;51.340;12.326;2023-01-08T00:41:39;5.90;;;5.22;;
15996;SDS011;8103;51.340;12.326;2023-01-08T00:44:09;7.05;;;5.80;;
15996;SDS011;8103;51.340;12.326;2023-01-08T00:46:36;5.43;;;4.93;;
15996;SDS011;8103;51.340;12.326;2023-01-08T00:49:03;5.28;;;4.65;;
15996;SDS011;8103;51.340;12.326;2023-01-08T00:51:30;6.97;;;5.35;;
15996;SDS011;8103;51.340;12.326;2023-01-08T00:53:56;7.03;;;5.60;;
15996;SDS011;8103;51.340;12.326;2023-01-08T00:56:24;5.28;;;4.78;;
15996;SDS011;8103;51.340;12.326;2023-01-08T00:58:51;6.30;;;4.65;;
15996;SDS011;8103;51.340;12.326;2023-01-08T01:01:18;5.13;;;4.40;;
15996;SDS011;8103;51.340;12.326;2023-01-08T01:03:45;9.90;;;5.28;;
15996;SDS011;8103;51.340;12.326;2023-01-08T01:06:12;5.35;;;4.85;;
15996;SDS011;8103;51.340;12.326;2023-01-08T01:12:48;8.68;;;5.75;;
15996;SDS011;8103;51.340;12.326;2023-01-08T01:15:16;5.55;;;5.05;;
15996;SDS011;8103;51.340;12.326;2023-01-08T01:17:44;5.72;;;4.75;;
15996;SDS011;8103;51.340;12.326;2023-01-08T01:20:13;7.85;;;5.47;;
15996;SDS011;8103;51.340;12.326;2023-01-08T01:22:41;5.90;;;5.22;;
15996;SDS011;8103;51.340;12.326;2023-01-08T01:25:09;5.28;;;4.78;;
15996;SDS011;8103;51.340;12.326;2023-01-08T01:27:36;5.95;;;5.07;;
15996;SDS011;8103;51.340;12.326;2023-01-08T01:30:03;6.35;;;4.63;;
15996;SDS011;8103;51.340;12.326;2023-01-08T01:32:31;6.65;;;5.80;;
15996;SDS011;8103;51.340;12.326;2023-01-08T01:34:58;4.93;;;4.47;;
15996;SDS011;8103;51.340;12.326;2023-01-08T01:37:25;6.45;;;4.82;;
15996;SDS011;8103;51.340;12.326;2023-01-08T01:39:53;7.05;;;5.53;;
15996;SDS011;8103;51.340;12.326;2023-01-08T01:42:21;5.13;;;4.63;;
15996;SDS011;8103;51.340;12.326;2023-01-08T01:45:20;5.47;;;4.93;;
15996;SDS011;8103;51.340;12.326;2023-01-08T01:47:54;5.47;;;4.55;;
15996;SDS011;8103;51.340;12.326;2023-01-08T01:50:49;7.35;;;5.38;;
15996;SDS011;8103;51.340;12.326;2023-01-08T01:53:23;5.43;;;4.63;;
15996;SDS011;8103;51.340;12.326;2023-01-08T01:55:56;5.65;;;5.13;;
15996;SDS011;8103;51.340;12.326;2023-01-08T01:58:25;4.93;;;4.43;;
15996;SDS011;8103;51.340;12.326;2023-01-08T02:00:55;6.72;;;4.50;;
15996;SDS011;8103;51.340;12.326;2023-01-08T02:03:29;5.57;;;4.95;;
15996;SDS011;8103;51.340;12.326;2023-01-08T02:06:13;4.45;;;3.72;;
15996;SDS011;8103;51.340;12.326;2023-01-08T02:11:53;5.07;;;4.15;;
15996;SDS011;8103;51.340;12.326;2023-01-08T02:15:03;6.22;;;4.20;;
15996;SDS011;8103;51.340;12.326;2023-01-08T02:20:19;4.90;;;4.40;;
15996;SDS011;8103;51.340;12.326;2023-01-08T02:23:20;4.97;;;4.43;;
15996;SDS011;8103;51.340;12.326;2023-01-08T02:26:25;4.75;;;4.18;;
15996;SDS011;8103;51.340;12.326;2023-01-08T02:31:36;4.68;;;4.10;;
15996;SDS011;8103;51.340;12.326;2023-01-08T02:34:06;5.38;;;4.28;;
15996;SDS011;8103;51.340;12.326;2023-01-08T02:36:42;4.50;;;4.10;;
15996;SDS011;8103;51.340;12.326;2023-01-08T02:39:38;4.80;;;4.13;;
15996;SDS011;8103;51.340;12.326;2023-01-08T02:42:22;4.80;;;4.10;;
15996;SDS011;8103;51.340;12.326;2023-01-08T02:47:48;5.28;;;3.85;;
15996;SDS011;8103;51.340;12.326;2023-01-08T02:50:55;4.65;;;3.60;;
15996;SDS011;8103;51.340;12.326;2023-01-08T02:53:56;5.15;;;4.35;;
15996;SDS011;8103;51.340;12.326;2023-01-08T02:56:30;4.90;;;4.28;;
15996;SDS011;8103;51.340;12.326;2023-01-08T02:59:02;5.63;;;4.32;;
15996;SDS011;8103;51.340;12.326;2023-01-08T03:01:32;4.70;;;3.95;;
15996;SDS011;8103;51.340;12.326;2023-01-08T03:04:02;4.60;;;3.85;;
15996;SDS011;8103;51.340;12.326;2023-01-08T03:06:40;4.25;;;3.50;;
15996;SDS011;8103;51.340;12.326;2023-01-08T03:09:07;4.85;;;3.78;;
15996;SDS011;8103;51.340;12.326;2023-01-08T03:14:55;3.63;;;3.30;;
15996;SDS011;8103;51.340;12.326;2023-01-08T03:17:38;4.55;;;3.13;;
15996;SDS011;8103;51.340;12.326;2023-01-08T03:20:13;3.67;;;3.05;;
15996;SDS011;8103;51.340;12.326;2023-01-08T03:22:46;3.38;;;3.08;;
15996;SDS011;8103;51.340;12.326;2023-01-08T03:25:19;5.07;;;3.92;;
15996;SDS011;8103;51.340;12.326;2023-01-08T03:27:53;4.47;;;3.35;;
15996;SDS011;8103;51.340;12.326;2023-01-08T03:30:25;5.28;;;3.47;;
15996;SDS011;8103;51.340;12.326;2023-01-08T03:32:56;3.08;;;2.78;;
15996;SDS011;8103;51.340;12.326;2023-01-08T03:35:26;4.45;;;3.88;;
15996;SDS011;8103;51.340;12.326;2023-01-08T03:37:57;3.65;;;3.00;;
15996;SDS011;8103;51.340;12.326;2023-01-08T03:40:35;3.33;;;2.72;;
15996;SDS011;8103;51.340;12.326;2023-01-08T03:43:10;3.63;;;2.33;;
15996;SDS011;8103;51.340;12.326;2023-01-08T03:45:37;4.05;;;2.92;;
15996;SDS011;8103;51.340;12.326;2023-01-08T03:48:14;2.80;;;2.53;;
15996;SDS011;8103;51.340;12.326;2023-01-08T03:50:45;4.82;;;3.35;;
15996;SDS011;8103;51.340;12.326;2023-01-08T03:53:13;4.03;;;3.10;;
15996;SDS011;8103;51.340;12.326;2023-01-08T03:55:40;4.15;;;3.17;;
15996;SDS011;8103;51.340;12.326;2023-01-08T03:58:07;6.50;;;3.45;;
15996;SDS011;8103;51.340;12.326;2023-01-08T04:00:34;5.32;;;3.33;;
15996;SDS011;8103;51.340;12.326;2023-01-08T04:03:01;4.32;;;2.90;;
15996;SDS011;8103;51.340;12.326;2023-01-08T04:05:31;3.35;;;3.05;;
15996;SDS011;8103;51.340;12.326;2023-01-08T04:07:58;4.32;;;2.67;;
15996;SDS011;8103;51.340;12.326;2023-01-08T04:10:25;3.90;;;3.03;;
15996;SDS011;8103;51.340;12.326;2023-01-08T04:12:52;5.03;;;3.22;;
15996;SDS011;8103;51.340;12.326;2023-01-08T04:15:19;3.20;;;2.90;;
15996;SDS011;8103;51.340;12.326;2023-01-08T04:17:46;4.53;;;3.30;;
15996;SDS011;8103;51.340;12.326;2023-01-08T04:20:13;3.15;;;2.80;;
15996;SDS011;8103;51.340;12.326;2023-01-08T04:22:39;4.18;;;3.28;;
15996;SDS011;8103;51.340;12.326;2023-01-08T04:25:06;3.72;;;3.10;;
15996;SDS011;8103;51.340;12.326;2023-01-08T04:27:34;3.85;;;3.25;;
15996;SDS011;8103;51.340;12.326;2023-01-08T04:30:01;3.40;;;2.58;;
15996;SDS011;8103;51.340;12.326;2023-01-08T04:32:29;3.33;;;2.53;;
15996;SDS011;8103;51.340;12.326;2023-01-08T04:34:56;4.10;;;3.20;;
15996;SDS011;8103;51.340;12.326;2023-01-08T04:37:23;6.00;;;3.40;;
15996;SDS011;8103;51.340;12.326;2023-01-08T04:39:49;4.80;;;3.60;;
15996;SDS011;8103;51.340;12.326;2023-01-08T04:42:16;4.25;;;3.15;;
15996;SDS011;8103;51.340;12.326;2023-01-08T04:44:43;6.75;;;3.33;;
15996;SDS011;8103;51.340;12.326;2023-01-08T04:47:10;4.55;;;3.17;;
15996;SDS011;8103;51.340;12.326;2023-01-08T04:49:36;4.95;;;3.45;;
15996;SDS011;8103;51.340;12.326;2023-01-08T04:52:03;3.20;;;2.90;;
15996;SDS011;8103;51.340;12.326;2023-01-08T04:54:30;3.40;;;2.85;;
15996;SDS011;8103;51.340;12.326;2023-01-08T04:56:57;2.95;;;2.65;;
15996;SDS011;8103;51.340;12.326;2023-01-08T04:59:24;3.38;;;2.90;;
15996;SDS011;8103;51.340;12.326;2023-01-08T05:01:51;4.07;;;3.28;;
15996;SDS011;8103;51.340;12.326;2023-01-08T05:04:18;4.00;;;3.13;;
15996;SDS011;8103;51.340;12.326;2023-01-08T05:06:44;3.42;;;2.58;;
15996;SDS011;8103;51.340;12.326;2023-01-08T05:09:11;3.65;;;3.15;;
15996;SDS011;8103;51.340;12.326;2023-01-08T05:11:38;3.45;;;3.00;;
15996;SDS011;8103;51.340;12.326;2023-01-08T05:14:05;5.07;;;3.08;;
15996;SDS011;8103;51.340;12.326;2023-01-08T05:16:31;3.00;;;2.70;;
15996;SDS011;8103;51.340;12.326;2023-01-08T05:18:58;4.35;;;2.58;;
15996;SDS011;8103;51.340;12.326;2023-01-08T05:21:25;4.30;;;2.42;;
15996;SDS011;8103;51.340;12.326;2023-01-08T05:23:52;3.10;;;2.60;;
15996;SDS011;8103;51.340;12.326;2023-01-08T05:26:19;3.88;;;2.45;;
15996;SDS011;8103;51.340;12.326;2023-01-08T05:28:46;3.53;;;2.60;;
15996;SDS011;8103;51.340;12.326;2023-01-08T05:31:13;4.95;;;2.30;;
15996;SDS011;8103;51.340;12.326;2023-01-08T05:33:41;3.85;;;2.95;;
15996;SDS011;8103;51.340;12.326;2023-01-08T05:36:09;4.78;;;2.72;;
15996;SDS011;8103;51.340;12.326;2023-01-08T05:38:37;3.47;;;2.67;;
15996;SDS011;8103;51.340;12.326;2023-01-08T05:41:06;3.92;;;3.03;;
15996;SDS011;8103;51.340;12.326;2023-01-08T05:43:33;5.60;;;3.05;;
15996;SDS011;8103;51.340;12.326;2023-01-08T05:46:00;2.75;;;2.25;;
15996;SDS011;8103;51.340;12.326;2023-01-08T05:48:29;4.40;;;3.30;;
15996;SDS011;8103;51.340;12.326;2023-01-08T05:50:58;3.03;;;2.70;;
15996;SDS011;8103;51.340;12.326;2023-01-08T05:53:25;5.95;;;2.58;;
15996;SDS011;8103;51.340;12.326;2023-01-08T05:55:56;3.35;;;2.75;;
15996;SDS011;8103;51.340;12.326;2023-01-08T05:58:29;5.53;;;3.13;;
15996;SDS011;8103;51.340;12.326;2023-01-08T06:01:00;2.95;;;2.65;;
15996;SDS011;8103;51.340;12.326;2023-01-08T06:03:41;3.42;;;2.80;;
15996;SDS011;8103;51.340;12.326;2023-01-08T06:06:09;3.17;;;2.70;;
15996;SDS011;8103;51.340;12.326;2023-01-08T06:08:36;3.40;;;2.60;;
15996;SDS011;8103;51.340;12.326;2023-01-08T06:11:05;4.22;;;2.90;;
15996;SDS011;8103;51.340;12.326;2023-01-08T06:13:34;3.55;;;3.25;;
15996;SDS011;8103;51.340;12.326;2023-01-08T06:16:03;3.92;;;2.90;;
15996;SDS011;8103;51.340;12.326;2023-01-08T06:18:30;2.72;;;2.53;;
15996;SDS011;8103;51.340;12.326;2023-01-08T06:20:57;3.67;;;3.30;;
15996;SDS011;8103;51.340;12.326;2023-01-08T06:23:23;4.90;;;3.28;;
15996;SDS011;8103;51.340;12.326;2023-01-08T06:25:51;3.33;;;2.92;;
15996;SDS011;8103;51.340;12.326;2023-01-08T06:28:22;5.53;;;4.18;;
15996;SDS011;8103;51.340;12.326;2023-01-08T06:30:49;3.47;;;3.17;;
15996;SDS011;8103;51.340;12.326;2023-01-08T06:33:18;6.88;;;3.47;;
15996;SDS011;8103;51.340;12.326;2023-01-08T06:35:46;4.53;;;3.63;;
15996;SDS011;8103;51.340;12.326;2023-01-08T06:38:13;4.53;;;3.33;;
15996;SDS011;8103;51.340;12.326;2023-01-08T06:40:41;5.57;;;3.53;;
15996;SDS011;8103;51.340;12.326;2023-01-08T06:43:07;3.35;;;3.05;;
15996;SDS011;8103;51.340;12.326;2023-01-08T06:45:34;4.03;;;3.60;;
15996;SDS011;8103;51.340;12.326;2023-01-08T06:48:02;5.00;;;3.20;;
15996;SDS011;8103;51.340;12.326;2023-01-08T06:50:32;4.40;;;3.70;;
15996;SDS011;8103;51.340;12.326;2023-01-08T06:52:59;3.33;;;3.03;;
15996;SDS011;8103;51.340;12.326;2023-01-08T06:55:26;5.90;;;3.80;;
15996;SDS011;8103;51.340;12.326;2023-01-08T06:57:53;4.07;;;3.55;;
15996;SDS011;8103;51.340;12.326;2023-01-08T07:00:21;6.50;;;3.90;;
15996;SDS011;8103;51.340;12.326;2023-01-08T07:02:52;6.43;;;3.42;;
15996;SDS011;8103;51.340;12.326;2023-01-08T07:05:20;5.20;;;3.42;;
15996;SDS011;8103;51.340;12.326;2023-01-08T07:07:47;3.58;;;3.25;;
15996;SDS011;8103;51.340;12.326;2023-01-08T07:10:15;4.30;;;3.20;;
15996;SDS011;8103;51.340;12.326;2023-01-08T07:12:44;4.30;;;3.28;;
15996;SDS011;8103;51.340;12.326;2023-01-08T07:15:11;4.20;;;3.47;;
15996;SDS011;8103;51.340;12.326;2023-01-08T07:17:39;4.85;;;3.72;;
15996;SDS011;8103;51.340;12.326;2023-01-08T07:20:06;6.90;;;3.60;;
15996;SDS011;8103;51.340;12.326;2023-01-08T07:22:34;3.53;;;3.13;;
15996;SDS011;8103;51.340;12.326;2023-01-08T07:25:01;4.80;;;3.80;;
15996;SDS011;8103;51.340;12.326;2023-01-08T07:27:30;3.70;;;2.97;;
15996;SDS011;8103;51.340;12.326;2023-01-08T07:29:57;5.03;;;4.40;;
15996;SDS011;8103;51.340;12.326;2023-01-08T07:32:24;5.40;;;4.15;;
15996;SDS011;8103;51.340;12.326;2023-01-08T07:34:52;5.72;;;3.75;;
15996;SDS011;8103;51.340;12.326;2023-01-08T07:37:24;4.70;;;3.80;;
15996;SDS011;8103;51.340;12.326;2023-01-08T07:39:51;4.32;;;3.55;;
15996;SDS011;8103;51.340;12.326;2023-01-08T07:42:18;4.30;;;3.67;;
15996;SDS011;8103;51.340;12.326;2023-01-08T07:44:45;4.03;;;3.08;;
15996;SDS011;8103;51.340;12.326;2023-01-08T07:47:12;5.28;;;3.92;;
15996;SDS011;8103;51.340;12.326;2023-01-08T07:49:38;4.65;;;3.75;;
15996;SDS011;8103;51.340;12.326;2023-01-08T07:52:05;4.93;;;3.47;;
15996;SDS011;8103;51.340;12.326;2023-01-08T07:58:32;5.63;;;4.35;;
15996;SDS011;8103;51.340;12.326;2023-01-08T08:00:59;4.20;;;3.72;;
15996;SDS011;8103;51.340;12.326;2023-01-08T08:03:27;3.88;;;3.33;;
15996;SDS011;8103;51.340;12.326;2023-01-08T08:05:54;6.60;;;3.83;;
15996;SDS011;8103;51.340;12.326;2023-01-08T08:08:21;4.35;;;3.45;;
15996;SDS011;8103;51.340;12.326;2023-01-08T08:10:48;5.18;;;3.90;;
15996;SDS011;8103;51.340;12.326;2023-01-08T08:13:14;4.25;;;3.78;;
15996;SDS011;8103;51.340;12.326;2023-01-08T08:15:41;4.75;;;3.55;;
15996;SDS011;8103;51.340;12.326;2023-01-08T08:18:08;10.63;;;5.00;;
15996;SDS011;8103;51.340;12.326;2023-01-08T08:20:35;4.40;;;3.40;;
15996;SDS011;8103;51.340;12.326;2023-01-08T08:23:05;4.47;;;3.70;;
15996;SDS011;8103;51.340;12.326;2023-01-08T08:25:40;5.70;;;3.85;;
15996;SDS011;8103;51.340;12.326;2023-01-08T08:28:09;4.25;;;3.78;;
15996;SDS011;8103;51.340;12.326;2023-01-08T08:30:37;5.13;;;4.15;;
15996;SDS011;8103;51.340;12.326;2023-01-08T08:33:07;4.80;;;3.85;;
15996;SDS011;8103;51.340;12.326;2023-01-08T08:35:35;3.38;;;3.08;;
15996;SDS011;8103;51.340;12.326;2023-01-08T08:38:02;4.07;;;3.38;;
15996;SDS011;8103;51.340;12.326;2023-01-08T08:40:29;4.40;;;3.50;;
15996;SDS011;8103;51.340;12.326;2023-01-08T08:43:00;4.78;;;4.13;;
15996;SDS011;8103;51.340;12.326;2023-01-08T08:45:29;6.10;;;4.00;;
15996;SDS011;8103;51.340;12.326;2023-01-08T08:47:56;7.80;;;4.10;;
15996;SDS011;8103;51.340;12.326;2023-01-08T08:50:23;4.60;;;3.92;;
15996;SDS011;8103;51.340;12.326;2023-01-08T08:52:50;6.85;;;4.28;;
15996;SDS011;8103;51.340;12.326;2023-01-08T08:55:17;4.97;;;4.18;;
15996;SDS011;8103;51.340;12.326;2023-01-08T08:57:44;7.93;;;5.20;;
15996;SDS011;8103;51.340;12.326;2023-01-08T09:00:12;6.15;;;4.75;;
15996;SDS011;8103;51.340;12.326;2023-01-08T09:02:44;8.00;;;4.80;;
15996;SDS011;8103;51.340;12.326;2023-01-08T09:05:11;14.98;;;7.45;;
15996;SDS011;8103;51.340;12.326;2023-01-08T09:07:38;10.35;;;5.65;;
15996;SDS011;8103;51.340;12.326;2023-01-08T09:10:05;9.57;;;5.15;;
15996;SDS011;8103;51.340;12.326;2023-01-08T09:12:33;6.95;;;4.30;;
15996;SDS011;8103;51.340;12.326;2023-01-08T09:15:00;6.63;;;4.65;;
15996;SDS011;8103;51.340;12.326;2023-01-08T09:17:27;4.88;;;4.35;;
15996;SDS011;8103;51.340;12.326;2023-01-08T09:24:00;8.93;;;6.10;;
15996;SDS011;8103;51.340;12.326;2023-01-08T09:26:27;6.32;;;4.45;;
15996;SDS011;8103;51.340;12.326;2023-01-08T09:28:57;5.63;;;4.07;;
15996;SDS011;8103;51.340;12.326;2023-01-08T09:31:25;7.53;;;4.53;;
15996;SDS011;8103;51.340;12.326;2023-01-08T09:33:52;8.20;;;4.60;;
15996;SDS011;8103;51.340;12.326;2023-01-08T09:36:19;8.77;;;4.70;;
15996;SDS011;8103;51.340;12.326;2023-01-08T09:42:56;8.23;;;4.82;;
15996;SDS011;8103;51.340;12.326;2023-01-08T09:45:27;6.75;;;4.80;;
15996;SDS011;8103;51.340;12.326;2023-01-08T09:47:58;5.80;;;4.43;;
15996;SDS011;8103;51.340;12.326;2023-01-08T09:50:31;4.97;;;4.45;;
15996;SDS011;8103;51.340;12.326;2023-01-08T09:52:59;5.90;;;4.25;;
15996;SDS011;8103;51.340;12.326;2023-01-08T09:55:28;5.30;;;4.20;;
15996;SDS011;8103;51.340;12.326;2023-01-08T09:57:59;5.82;;;4.72;;
15996;SDS011;8103;51.340;12.326;2023-01-08T10:00:29;5.65;;;4.13;;
15996;SDS011;8103;51.340;12.326;2023-01-08T10:02:59;5.20;;;4.00;;
15996;SDS011;8103;51.340;12.326;2023-01-08T10:05:26;5.28;;;4.60;;
15996;SDS011;8103;51.340;12.326;2023-01-08T10:07:54;7.25;;;4.30;;
15996;SDS011;8103;51.340;12.326;2023-01-08T10:10:22;5.25;;;4.18;;
15996;SDS011;8103;51.340;12.326;2023-01-08T10:12:54;5.70;;;4.50;;
15996;SDS011;8103;51.340;12.326;2023-01-08T10:15:22;5.43;;;4.30;;
15996;SDS011;8103;51.340;12.326;2023-01-08T10:18:02;4.80;;;4.30;;
15996;SDS011;8103;51.340;12.326;2023-01-08T10:20:35;5.78;;;4.65;;
15996;SDS011;8103;51.340;12.326;2023-01-08T10:23:11;8.77;;;3.92;;
15996;SDS011;8103;51.340;12.326;2023-01-08T10:28:24;6.38;;;4.32;;
15996;SDS011;8103;51.340;12.326;2023-01-08T10:33:39;5.78;;;4.68;;
15996;SDS011;8103;51.340;12.326;2023-01-08T10:40:18;4.63;;;3.53;;
15996;SDS011;8103;51.340;12.326;2023-01-08T10:42:45;7.18;;;4.63;;
15996;SDS011;8103;51.340;12.326;2023-01-08T10:45:20;7.25;;;4.05;;
15996;SDS011;8103;51.340;12.326;2023-01-08T10:47:54;6.15;;;3.95;;
15996;SDS011;8103;51.340;12.326;2023-01-08T10:50:29;5.32;;;3.88;;
15996;SDS011;8103;51.340;12.326;2023-01-08T10:53:00;4.78;;;4.10;;
15996;SDS011;8103;51.340;12.326;2023-01-08T10:55:34;5.43;;;4.32;;
15996;SDS011;8103;51.340;12.326;2023-01-08T11:00:35;5.53;;;4.35;;
15996;SDS011;8103;51.340;12.326;2023-01-08T11:03:04;6.63;;;4.47;;
15996;SDS011;8103;51.340;12.326;2023-01-08T11:05:37;6.03;;;4.53;;
15996;SDS011;8103;51.340;12.326;2023-01-08T11:08:06;5.85;;;4.07;;
15996;SDS011;8103;51.340;12.326;2023-01-08T11:10:42;5.72;;;4.00;;
15996;SDS011;8103;51.340;12.326;2023-01-08T11:13:23;4.95;;;3.75;;
15996;SDS011;8103;51.340;12.326;2023-01-08T11:16:28;6.50;;;4.40;;
15996;SDS011;8103;51.340;12.326;2023-01-08T11:18:48;5.03;;;4.00;;
15996;SDS011;8103;51.340;12.326;2023-01-08T11:21:17;7.53;;;4.75;;
15996;SDS011;8103;51.340;12.326;2023-01-08T11:24:14;6.22;;;4.60;;
15996;SDS011;8103;51.340;12.326;2023-01-08T11:26:46;9.10;;;4.75;;
15996;SDS011;8103;51.340;12.326;2023-01-08T11:29:29;6.07;;;5.47;;
15996;SDS011;8103;51.340;12.326;2023-01-08T11:32:20;6.88;;;4.72;;
15996;SDS011;8103;51.340;12.326;2023-01-08T11:37:19;6.07;;;4.47;;
15996;SDS011;8103;51.340;12.326;2023-01-08T11:39:53;5.88;;;4.75;;
15996;SDS011;8103;51.340;12.326;2023-01-08T11:42:32;6.43;;;4.82;;
15996;SDS011;8103;51.340;12.326;2023-01-08T11:48:52;6.88;;;5.40;;
15996;SDS011;8103;51.340;12.326;2023-01-08T11:51:35;8.40;;;4.95;;
15996;SDS011;8103;51.340;12.326;2023-01-08T11:54:23;7.60;;;4.75;;
15996;SDS011;8103;51.340;12.326;2023-01-08T11:57:12;7.22;;;5.43;;
15996;SDS011;8103;51.340;12.326;2023-01-08T12:03:03;6.82;;;5.35;;
15996;SDS011;8103;51.340;12.326;2023-01-08T12:06:23;6.18;;;5.53;;
15996;SDS011;8103;51.340;12.326;2023-01-08T12:12:17;9.60;;;4.97;;
15996;SDS011;8103;51.340;12.326;2023-01-08T12:20:57;4.88;;;4.15;;
15996;SDS011;8103;51.340;12.326;2023-01-08T12:26:48;5.78;;;4.82;;
15996;SDS011;8103;51.340;12.326;2023-01-08T12:29:48;6.90;;;4.68;;
15996;SDS011;8103;51.340;12.326;2023-01-08T12:32:38;5.45;;;4.70;;
15996;SDS011;8103;51.340;12.326;2023-01-08T12:38:21;5.00;;;4.43;;
15996;SDS011;8103;51.340;12.326;2023-01-08T12:41:09;7.30;;;5.97;;
15996;SDS011;8103;51.340;12.326;2023-01-08T12:46:26;7.82;;;5.65;;
15996;SDS011;8103;51.340;12.326;2023-01-08T12:49:10;7.70;;;5.88;;
15996;SDS011;8103;51.340;12.326;2023-01-08T12:51:53;5.93;;;4.80;;
15996;SDS011;8103;51.340;12.326;2023-01-08T12:54:34;6.18;;;4.93;;
15996;SDS011;8103;51.340;12.326;2023-01-08T12:57:33;5.80;;;4.68;;
15996;SDS011;8103;51.340;12.326;2023-01-08T13:00:16;4.85;;;4.20;;
15996;SDS011;8103;51.340;12.326;2023-01-08T13:02:57;4.25;;;3.58;;
15996;SDS011;8103;51.340;12.326;2023-01-08T13:05:29;5.28;;;3.83;;
15996;SDS011;8103;51.340;12.326;2023-01-08T13:08:03;5.38;;;3.95;;
15996;SDS011;8103;51.340;12.326;2023-01-08T13:10:49;4.57;;;4.10;;
15996;SDS011;8103;51.340;12.326;2023-01-08T13:13:23;5.80;;;3.72;;
15996;SDS011;8103;51.340;12.326;2023-01-08T13:19:02;5.30;;;3.67;;
15996;SDS011;8103;51.340;12.326;2023-01-08T13:21:37;3.92;;;3.53;;
15996;SDS011;8103;51.340;12.326;2023-01-08T13:24:29;4.50;;;3.60;;
15996;SDS011;8103;51.340;12.326;2023-01-08T13:29:48;3.63;;;2.90;;
15996;SDS011;8103;51.340;12.326;2023-01-08T13:32:23;3.95;;;3.22;;
15996;SDS011;8103;51.340;12.326;2023-01-08T13:37:42;3.97;;;3.00;;
15996;SDS011;8103;51.340;12.326;2023-01-08T13:40:34;4.30;;;2.83;;
15996;SDS011;8103;51.340;12.326;2023-01-08T13:43:04;2.78;;;2.40;;
15996;SDS011;8103;51.340;12.326;2023-01-08T13:45:40;4.53;;;2.92;;
15996;SDS011;8103;51.340;12.326;2023-01-08T13:48:19;4.82;;;2.80;;
15996;SDS011;8103;51.340;12.326;2023-01-08T13:50:48;4.75;;;3.28;;
15996;SDS011;8103;51.340;12.326;2023-01-08T13:53:16;6.43;;;4.20;;
15996;SDS011;8103;51.340;12.326;2023-01-08T13:55:51;3.75;;;2.88;;
15996;SDS011;8103;51.340;12.326;2023-01-08T13:58:26;4.72;;;3.58;;
15996;SDS011;8103;51.340;12.326;2023-01-08T14:01:01;4.60;;;3.40;;
15996;SDS011;8103;51.340;12.326;2023-01-08T14:03:31;4.97;;;2.90;;
15996;SDS011;8103;51.340;12.326;2023-01-08T14:06:04;4.75;;;3.45;;
15996;SDS011;8103;51.340;12.326;2023-01-08T14:08:53;2.58;;;2.35;;
15996;SDS011;8103;51.340;12.326;2023-01-08T14:11:30;3.13;;;2.38;;
15996;SDS011;8103;51.340;12.326;2023-01-08T14:14:10;3.08;;;2.38;;
15996;SDS011;8103;51.340;12.326;2023-01-08T14:16:41;3.92;;;3.15;;
15996;SDS011;8103;51.340;12.326;2023-01-08T14:19:10;4.03;;;2.90;;
15996;SDS011;8103;51.340;12.326;2023-01-08T14:21:46;3.35;;;2.70;;
15996;SDS011;8103;51.340;12.326;2023-01-08T14:24:16;4.72;;;2.63;;
15996;SDS011;8103;51.340;12.326;2023-01-08T14:26:52;3.35;;;2.75;;
15996;SDS011;8103;51.340;12.326;2023-01-08T14:29:25;4.00;;;2.78;;
15996;SDS011;8103;51.340;12.326;2023-01-08T14:31:56;3.95;;;2.75;;
15996;SDS011;8103;51.340;12.326;2023-01-08T14:34:26;3.45;;;2.88;;
15996;SDS011;8103;51.340;12.326;2023-01-08T14:36:57;4.63;;;3.65;;
15996;SDS011;8103;51.340;12.326;2023-01-08T14:41:53;5.57;;;3.15;;
15996;SDS011;8103;51.340;12.326;2023-01-08T14:44:39;3.95;;;3.00;;
15996;SDS011;8103;51.340;12.326;2023-01-08T14:47:14;3.92;;;2.75;;
15996;SDS011;8103;51.340;12.326;2023-01-08T14:49:51;3.17;;;2.60;;
15996;SDS011;8103;51.340;12.326;2023-01-08T14:52:19;3.40;;;3.05;;
15996;SDS011;8103;51.340;12.326;2023-01-08T14:54:48;3.17;;;2.60;;
15996;SDS011;8103;51.340;12.326;2023-01-08T14:57:21;2.95;;;2.65;;
15996;SDS011;8103;51.340;12.326;2023-01-08T14:59:53;3.45;;;3.00;;
15996;SDS011;8103;51.340;12.326;2023-01-08T15:02:29;4.55;;;3.20;;
15996;SDS011;8103;51.340;12.326;2023-01-08T15:05:03;3.80;;;2.75;;
15996;SDS011;8103;51.340;12.326;2023-01-08T15:07:43;4.35;;;3.10;;
15996;SDS011;8103;51.340;12.326;2023-01-08T15:10:35;2.78;;;2.30;;
15996;SDS011;8103;51.340;12.326;2023-01-08T15:13:20;3.20;;;2.40;;
15996;SDS011;8103;51.340;12.326;2023-01-08T15:15:57;4.40;;;2.95;;
15996;SDS011;8103;51.340;12.326;2023-01-08T15:18:42;3.42;;;2.17;;
15996;SDS011;8103;51.340;12.326;2023-01-08T15:21:26;3.38;;;2.95;;
15996;SDS011;8103;51.340;12.326;2023-01-08T15:23:53;4.22;;;3.10;;
15996;SDS011;8103;51.340;12.326;2023-01-08T15:26:23;5.82;;;3.38;;
15996;SDS011;8103;51.340;12.326;2023-01-08T15:31:28;3.40;;;2.90;;
15996;SDS011;8103;51.340;12.326;2023-01-08T15:33:58;3.75;;;2.60;;
15996;SDS011;8103;51.340;12.326;2023-01-08T15:36:25;2.90;;;2.50;;
15996;SDS011;8103;51.340;12.326;2023-01-08T15:38:52;4.38;;;2.80;;
15996;SDS011;8103;51.340;12.326;2023-01-08T15:41:20;4.35;;;3.13;;
15996;SDS011;8103;51.340;12.326;2023-01-08T15:44:08;5.07;;;2.78;;
15996;SDS011;8103;51.340;12.326;2023-01-08T15:46:39;3.08;;;2.63;;
15996;SDS011;8103;51.340;12.326;2023-01-08T15:49:06;3.67;;;2.72;;
15996;SDS011;8103;51.340;12.326;2023-01-08T15:51:33;3.33;;;2.50;;
15996;SDS011;8103;51.340;12.326;2023-01-08T15:54:04;4.05;;;3.30;;
15996;SDS011;8103;51.340;12.326;2023-01-08T15:56:31;4.47;;;2.90;;
15996;SDS011;8103;51.340;12.326;2023-01-08T15:58:57;4.13;;;3.10;;
15996;SDS011;8103;51.340;12.326;2023-01-08T16:01:24;4.00;;;3.00;;
15996;SDS011;8103;51.340;12.326;2023-01-08T16:03:53;8.57;;;4.00;;
15996;SDS011;8103;51.340;12.326;2023-01-08T16:06:20;4.13;;;3.08;;
15996;SDS011;8103;51.340;12.326;2023-01-08T16:08:47;4.57;;;3.70;;
15996;SDS011;8103;51.340;12.326;2023-01-08T16:11:17;3.95;;;3.05;;
15996;SDS011;8103;51.340;12.326;2023-01-08T16:13:45;5.38;;;3.45;;
15996;SDS011;8103;51.340;12.326;2023-01-08T16:16:12;3.78;;;2.80;;
15996;SDS011;8103;51.340;12.326;2023-01-08T16:18:41;3.92;;;2.83;;
15996;SDS011;8103;51.340;12.326;2023-01-08T16:21:10;4.80;;;3.03;;
15996;SDS011;8103;51.340;12.326;2023-01-08T16:23:38;4.93;;;3.35;;
15996;SDS011;8103;51.340;12.326;2023-01-08T16:26:07;5.80;;;3.78;;
15996;SDS011;8103;51.340;12.326;2023-01-08T16:28:37;4.15;;;2.88;;
15996;SDS011;8103;51.340;12.326;2023-01-08T16:31:05;3.42;;;2.88;;
15996;SDS011;8103;51.340;12.326;2023-01-08T16:33:32;5.20;;;3.75;;
15996;SDS011;8103;51.340;12.326;2023-01-08T16:36:01;6.25;;;4.55;;
15996;SDS011;8103;51.340;12.326;2023-01-08T16:38:33;5.85;;;4.70;;
15996;SDS011;8103;51.340;12.326;2023-01-08T16:41:01;8.85;;;5.07;;